Athens, Indiana
Current Conditions -  °F | °C
As of 5:35 PM on Friday 24 Oct 2014 (Local Time) from KRCR Reporting Station
Scattered Clouds Scattered Clouds  
Wind Chill: 66°   Ceiling: Unl
Heat Index: 66°   Visibility: 10mi
Dew Point: 50°   Wind: 9mph
Humidity: 56%   Direction: 240°WSW
Pressure: 30"   Gusts: 16mph
Location:  41.05°N, 86.13°W
Report Text: KRCR 242135Z AUTO 24008G14KT 10SM SCT036 SCT043 19/10 A3000 RMK AO2
Loading
Personal Weather Stations






























Interactive Weather Map New forecast layout! Learn more

10-Day Weather Forecast

Advertisements
Track Severe Weather on mobile